Saturday, October 25, 2014
07:08 UTC
  |  Log In   |  Register Free
Airport Search:

Tucson International Airport
(KTUS)

FAA data valid effective September 18, 2014 - November 13, 2014 (unless otherwise noted).

 
 
 
 
 
 
 
 
 
 
 
 
 
 

Current Aviation Weather for Tucson International Airport (KTUS)

The most recent METAR observation for KTUS was updated at: 0619
METAR Summary (Translated METAR)
KTUS
250553Z 16004KT 10SM CLR 22/08 A3011 RMK AO2 SLP155 T02220078 10328 20222 51010
KDMA
250658Z AUTO 13005KT 10SM CLR 20/09 A3010 RMK AO2 SLP154 T02030088 403300160 $
(4.2 nm NE from KTUS)
KRYN
250248Z 21005KT 10SM CLR 26/10 A3008
(12 nm NW from KTUS)
TAF Summary (Translated TAF)
KTUS
250520Z 2506/2606 15006KT P6SM SKC FM251300 14012KT P6SM SKC FM251900 VRB04KT P6SM SKC FM252200 30006KT P6SM SCT280
KDMA
(4.2 nm NE from KTUS)
2505/2611 VRB06KT 9999 SKC QNH3009INS BECMG 2518/2519 30009KT 9999 FEW250 QNH2999INS BECMG 2602/2603 VRB06KT 9999 SCT200 QNH3000INS TX33/2521Z TN15/2513Z
  Airport Weather Conditions for KTUS

 Current Weather at TUS
72° F
Fair
South winds at 4.6 mph
TUS NOAA Radar

Pressure: 30.11 in
Humidity: 40%
Wind: South at 4.6 MPH (4 KT)
Dew Point: 46.0°F
Visibility: 10.00 mi


Airport Weather Forecast for KTUS

Translated METAR and TAF for KTUS
Translated METAR for KTUS (0703 UTC 25 October 2014)
found at http://aviationweather.gov/adds/metars/
 
METAR text: KTUS 250653Z 14008KT 10SM CLR 22/08 A3012 RMK AO2 SLP154 T02170078 403440167
Conditions at: KTUS (TUCSON , AZ, US) observed 0653 UTC 25 October 2014
Temperature: 21.7°C (71°F)
Dewpoint: 7.8°C (46°F) [RH = 41%]
Pressure (altimeter): 30.12 inches Hg (1020.1 mb)
[Sea-level pressure: 1015.4 mb]
Winds: from the SE (140 degrees) at 9 MPH (8 knots; 4.2 m/s)
Visibility: 10 or more miles (16+ km)
Ceiling: at least 12,000 feet AGL
Clouds: sky clear below 12,000 feet AGL
Weather: no significant weather observed at this time
Translated TAF for KTUS
Forecast for: KTUS (TUCSON , AZ, US)
TAF Text: KTUS 250520Z 2506/2606 15006KT P6SM SKC
Forecast period: 0600 to 1300 UTC 25 October 2014
Forecast type: FROM: standard forecast or significant change
Winds: from the SSE (150 degrees) at 7 MPH (6 knots; 3.1 m/s)
Visibility: 6 or more miles (10+ km)
Clouds: clear skies
Weather: no significant weather forecast for this period
TAF Text: FM251300 14012KT P6SM SKC
Forecast period: 1300 to 1900 UTC 25 October 2014
Forecast type: FROM: standard forecast or significant change
Winds: from the SE (140 degrees) at 14 MPH (12 knots; 6.2 m/s)
Visibility: 6 or more miles (10+ km)
Clouds: clear skies
Weather: no significant weather forecast for this period
TAF Text: FM251900 VRB04KT P6SM SKC
Forecast period: 1900 to 2200 UTC 25 October 2014
Forecast type: FROM: standard forecast or significant change
Winds: variable direction winds at 5 MPH (4 knots; 2.1 m/s)
Visibility: 6 or more miles (10+ km)
Clouds: clear skies
Weather: no significant weather forecast for this period
TAF Text: FM252200 30006KT P6SM SCT280
Forecast period: 2200 UTC 25 October 2014 to 0600 UTC 26 October 2014
Forecast type: FROM: standard forecast or significant change
Winds: from the WNW (300 degrees) at 7 MPH (6 knots; 3.1 m/s)
Visibility: 6 or more miles (10+ km)
Clouds: scattered clouds at 28000 feet AGL
Weather: no significant weather forecast for this period

Find All Airport Services Find A Hotel Find A Rental Car Find A Golf Course Find A Restaurant $100 Hamburger



FBO's on the Field
FBO Company Facility Photos Services Transportation Aviation Fuel Prices: Prices include tax
Catering Weather Repair Courtesy Rental Type 100LL JetA JetA+ MOGAS 8087
 
Bombardier Aerospace

Bombardier Aerospace logo
This FBO has not yet been rated
FS:
Last Updated: Oct-16
Login to update fuel prices
SS:
Contact Bombardier AerospaceMore FBO Information
 
Atlantic Aviation

Currently rated 4.6 by 2 people
FS:Texaco
Last Updated: Oct-24
Login to update fuel prices
SS:
Contact Atlantic AviationMore FBO Information
 
Million Air

This FBO has not yet been rated
FS:Independent
Last Updated: Oct-07
Login to update fuel prices
SS:
Contact Million AirMore FBO Information
 
Million Air Tucson

Currently rated 2.2 by 3 people
FS:Independent
Last Updated: Sep-25
Login to update fuel prices
SS:
Contact Million Air TucsonMore FBO Information
 
Tucson Jet Center

Currently rated 4.4 by 3 people
FS:Independent
Last Updated: Sep-23
Login to update fuel prices
SS:
Contact Tucson Jet CenterMore FBO Information
 
Velocity Air Inc.

This FBO has not yet been rated
FS:Ascent
Last Updated: Oct-20
Login to update fuel prices
SS:
Contact Velocity Air Inc.More FBO Information
 
Add another FBO Facility Photos Catering Weather Repair Courtesy Rental Type 100LL JetA JetA+ MOGAS 8087
Services Transportation Aviation Fuel Prices: Prices include tax


model-print
model-print
model-print
model-print